sensor_id;sensor_type;location;lat;lon;timestamp;temperature;humidity
62583;DHT22;48641;51.676;5.808;2023-07-29T00:01:31;23.20;58.10
62583;DHT22;48641;51.676;5.808;2023-07-29T00:03:56;23.20;58.10
62583;DHT22;48641;51.676;5.808;2023-07-29T00:06:22;23.20;58.20
62583;DHT22;48641;51.676;5.808;2023-07-29T00:08:48;23.20;58.10
62583;DHT22;48641;51.676;5.808;2023-07-29T00:11:13;23.10;58.10
62583;DHT22;48641;51.676;5.808;2023-07-29T00:13:39;23.10;58.20
62583;DHT22;48641;51.676;5.808;2023-07-29T00:16:05;23.20;58.20
62583;DHT22;48641;51.676;5.808;2023-07-29T00:18:31;23.20;58.20
62583;DHT22;48641;51.676;5.808;2023-07-29T00:20:57;23.20;58.20
62583;DHT22;48641;51.676;5.808;2023-07-29T00:23:23;23.20;58.20
62583;DHT22;48641;51.676;5.808;2023-07-29T00:25:48;23.20;58.10
62583;DHT22;48641;51.676;5.808;2023-07-29T00:28:14;23.20;58.10
62583;DHT22;48641;51.676;5.808;2023-07-29T00:30:40;23.20;58.10
62583;DHT22;48641;51.676;5.808;2023-07-29T00:33:05;23.20;58.10
62583;DHT22;48641;51.676;5.808;2023-07-29T00:35:31;23.20;58.10
62583;DHT22;48641;51.676;5.808;2023-07-29T00:37:57;23.20;58.00
62583;DHT22;48641;51.676;5.808;2023-07-29T00:40:23;23.20;58.10
62583;DHT22;48641;51.676;5.808;2023-07-29T00:42:49;23.10;58.00
62583;DHT22;48641;51.676;5.808;2023-07-29T00:45:16;23.10;58.00
62583;DHT22;48641;51.676;5.808;2023-07-29T00:47:42;23.10;58.00
62583;DHT22;48641;51.676;5.808;2023-07-29T00:50:11;23.10;58.10
62583;DHT22;48641;51.676;5.808;2023-07-29T00:52:37;23.10;58.10
62583;DHT22;48641;51.676;5.808;2023-07-29T00:55:04;23.10;58.10
62583;DHT22;48641;51.676;5.808;2023-07-29T00:57:30;23.10;58.10
62583;DHT22;48641;51.676;5.808;2023-07-29T00:59:55;23.10;58.00
62583;DHT22;48641;51.676;5.808;2023-07-29T01:02:21;23.20;58.10
62583;DHT22;48641;51.676;5.808;2023-07-29T01:04:57;23.20;58.10
62583;DHT22;48641;51.676;5.808;2023-07-29T01:13:37;23.20;57.90
62583;DHT22;48641;51.676;5.808;2023-07-29T01:16:13;23.20;58.00
62583;DHT22;48641;51.676;5.808;2023-07-29T01:18:41;23.10;58.00
62583;DHT22;48641;51.676;5.808;2023-07-29T01:21:08;23.10;58.00
62583;DHT22;48641;51.676;5.808;2023-07-29T01:23:35;23.10;58.00
62583;DHT22;48641;51.676;5.808;2023-07-29T01:26:02;23.10;58.00
62583;DHT22;48641;51.676;5.808;2023-07-29T01:28:28;23.10;58.10
62583;DHT22;48641;51.676;5.808;2023-07-29T01:31:38;23.10;58.10
62583;DHT22;48641;51.676;5.808;2023-07-29T01:34:17;23.10;58.00
62583;DHT22;48641;51.676;5.808;2023-07-29T01:36:45;23.00;58.20
62583;DHT22;48641;51.676;5.808;2023-07-29T01:39:12;23.10;58.20
62583;DHT22;48641;51.676;5.808;2023-07-29T01:41:40;23.10;58.20
62583;DHT22;48641;51.676;5.808;2023-07-29T01:44:06;23.10;58.10
62583;DHT22;48641;51.676;5.808;2023-07-29T01:46:34;23.10;58.10
62583;DHT22;48641;51.676;5.808;2023-07-29T01:49:00;23.10;58.00
62583;DHT22;48641;51.676;5.808;2023-07-29T01:51:26;23.10;58.10
62583;DHT22;48641;51.676;5.808;2023-07-29T01:53:51;23.10;58.00
62583;DHT22;48641;51.676;5.808;2023-07-29T01:56:17;23.10;58.00
62583;DHT22;48641;51.676;5.808;2023-07-29T01:58:42;23.10;58.00
62583;DHT22;48641;51.676;5.808;2023-07-29T02:01:08;23.10;58.00
62583;DHT22;48641;51.676;5.808;2023-07-29T02:03:34;23.10;57.90
62583;DHT22;48641;51.676;5.808;2023-07-29T02:05:59;23.10;58.00
62583;DHT22;48641;51.676;5.808;2023-07-29T02:08:25;23.00;58.00
62583;DHT22;48641;51.676;5.808;2023-07-29T02:10:50;23.00;58.00
62583;DHT22;48641;51.676;5.808;2023-07-29T02:13:16;23.10;58.00
62583;DHT22;48641;51.676;5.808;2023-07-29T02:15:42;23.00;58.10
62583;DHT22;48641;51.676;5.808;2023-07-29T02:18:07;23.10;58.10
62583;DHT22;48641;51.676;5.808;2023-07-29T02:20:33;23.10;58.00
62583;DHT22;48641;51.676;5.808;2023-07-29T02:22:59;23.10;58.00
62583;DHT22;48641;51.676;5.808;2023-07-29T02:25:24;23.10;58.00
62583;DHT22;48641;51.676;5.808;2023-07-29T02:27:50;23.10;58.00
62583;DHT22;48641;51.676;5.808;2023-07-29T02:30:16;23.10;58.00
62583;DHT22;48641;51.676;5.808;2023-07-29T02:32:41;23.10;58.00
62583;DHT22;48641;51.676;5.808;2023-07-29T02:35:07;23.10;57.90
62583;DHT22;48641;51.676;5.808;2023-07-29T02:37:33;23.10;57.90
62583;DHT22;48641;51.676;5.808;2023-07-29T02:39:58;23.10;57.90
62583;DHT22;48641;51.676;5.808;2023-07-29T02:42:24;23.10;57.90
62583;DHT22;48641;51.676;5.808;2023-07-29T02:44:50;23.10;58.00
62583;DHT22;48641;51.676;5.808;2023-07-29T02:47:15;23.10;58.00
62583;DHT22;48641;51.676;5.808;2023-07-29T02:49:41;23.00;57.90
62583;DHT22;48641;51.676;5.808;2023-07-29T02:52:07;23.00;58.00
62583;DHT22;48641;51.676;5.808;2023-07-29T02:54:32;23.00;57.90
62583;DHT22;48641;51.676;5.808;2023-07-29T02:56:58;23.00;57.90
62583;DHT22;48641;51.676;5.808;2023-07-29T02:59:23;23.00;57.90
62583;DHT22;48641;51.676;5.808;2023-07-29T03:01:50;23.00;58.00
62583;DHT22;48641;51.676;5.808;2023-07-29T03:04:15;23.00;57.90
62583;DHT22;48641;51.676;5.808;2023-07-29T03:06:41;23.00;57.90
62583;DHT22;48641;51.676;5.808;2023-07-29T03:09:07;23.00;58.00
62583;DHT22;48641;51.676;5.808;2023-07-29T03:11:33;23.00;58.00
62583;DHT22;48641;51.676;5.808;2023-07-29T03:13:58;23.00;58.00
62583;DHT22;48641;51.676;5.808;2023-07-29T03:16:24;23.00;57.90
62583;DHT22;48641;51.676;5.808;2023-07-29T03:18:49;23.00;57.90
62583;DHT22;48641;51.676;5.808;2023-07-29T03:21:15;23.00;57.90
62583;DHT22;48641;51.676;5.808;2023-07-29T03:23:41;23.00;58.00
62583;DHT22;48641;51.676;5.808;2023-07-29T03:26:06;23.00;57.80
62583;DHT22;48641;51.676;5.808;2023-07-29T03:28:38;23.00;57.90
62583;DHT22;48641;51.676;5.808;2023-07-29T03:31:04;23.00;57.90
62583;DHT22;48641;51.676;5.808;2023-07-29T03:33:30;23.00;57.90
62583;DHT22;48641;51.676;5.808;2023-07-29T03:35:56;23.00;57.90
62583;DHT22;48641;51.676;5.808;2023-07-29T03:38:21;23.00;57.80
62583;DHT22;48641;51.676;5.808;2023-07-29T03:40:47;23.00;57.80
62583;DHT22;48641;51.676;5.808;2023-07-29T03:43:12;23.00;57.90
62583;DHT22;48641;51.676;5.808;2023-07-29T03:45:40;23.00;57.90
62583;DHT22;48641;51.676;5.808;2023-07-29T03:48:05;23.00;57.90
62583;DHT22;48641;51.676;5.808;2023-07-29T03:50:33;23.00;57.90
62583;DHT22;48641;51.676;5.808;2023-07-29T03:53:00;23.00;57.90
62583;DHT22;48641;51.676;5.808;2023-07-29T03:55:26;22.90;57.90
62583;DHT22;48641;51.676;5.808;2023-07-29T03:57:51;23.00;58.00
62583;DHT22;48641;51.676;5.808;2023-07-29T04:00:17;23.00;58.00
62583;DHT22;48641;51.676;5.808;2023-07-29T04:02:42;23.00;58.00
62583;DHT22;48641;51.676;5.808;2023-07-29T04:05:10;23.00;57.90
62583;DHT22;48641;51.676;5.808;2023-07-29T04:07:36;23.00;57.90
62583;DHT22;48641;51.676;5.808;2023-07-29T04:10:03;23.00;57.80
62583;DHT22;48641;51.676;5.808;2023-07-29T04:12:30;23.00;57.90
62583;DHT22;48641;51.676;5.808;2023-07-29T04:14:56;23.00;57.80
62583;DHT22;48641;51.676;5.808;2023-07-29T04:17:22;23.00;58.80
62583;DHT22;48641;51.676;5.808;2023-07-29T04:19:47;23.00;57.80
62583;DHT22;48641;51.676;5.808;2023-07-29T04:22:13;23.00;57.80
62583;DHT22;48641;51.676;5.808;2023-07-29T04:24:39;23.00;57.80
62583;DHT22;48641;51.676;5.808;2023-07-29T04:27:05;22.90;57.80
62583;DHT22;48641;51.676;5.808;2023-07-29T04:29:30;23.00;57.80
62583;DHT22;48641;51.676;5.808;2023-07-29T04:31:56;22.90;57.90
62583;DHT22;48641;51.676;5.808;2023-07-29T04:34:22;22.90;57.90
62583;DHT22;48641;51.676;5.808;2023-07-29T04:36:48;22.90;57.90
62583;DHT22;48641;51.676;5.808;2023-07-29T04:39:14;22.90;57.90
62583;DHT22;48641;51.676;5.808;2023-07-29T04:41:40;23.00;58.00
62583;DHT22;48641;51.676;5.808;2023-07-29T04:44:05;23.00;57.90
62583;DHT22;48641;51.676;5.808;2023-07-29T04:46:31;23.00;57.90
62583;DHT22;48641;51.676;5.808;2023-07-29T04:48:57;23.00;57.90
62583;DHT22;48641;51.676;5.808;2023-07-29T04:51:23;23.00;58.80
62583;DHT22;48641;51.676;5.808;2023-07-29T04:53:49;23.00;57.70
62583;DHT22;48641;51.676;5.808;2023-07-29T04:56:14;23.00;57.80
62583;DHT22;48641;51.676;5.808;2023-07-29T04:58:40;23.00;57.80
62583;DHT22;48641;51.676;5.808;2023-07-29T05:01:05;23.00;57.80
62583;DHT22;48641;51.676;5.808;2023-07-29T05:03:31;23.00;57.80
62583;DHT22;48641;51.676;5.808;2023-07-29T05:05:58;22.90;57.70
62583;DHT22;48641;51.676;5.808;2023-07-29T05:08:28;22.90;57.80
62583;DHT22;48641;51.676;5.808;2023-07-29T05:10:53;22.90;57.90
62583;DHT22;48641;51.676;5.808;2023-07-29T05:13:19;22.90;57.90
62583;DHT22;48641;51.676;5.808;2023-07-29T05:15:47;22.90;57.80
62583;DHT22;48641;51.676;5.808;2023-07-29T05:18:13;22.90;57.90
62583;DHT22;48641;51.676;5.808;2023-07-29T05:20:39;22.90;57.90
62583;DHT22;48641;51.676;5.808;2023-07-29T05:23:04;22.90;57.90
62583;DHT22;48641;51.676;5.808;2023-07-29T05:25:30;22.90;57.90
62583;DHT22;48641;51.676;5.808;2023-07-29T05:27:55;22.90;57.80
62583;DHT22;48641;51.676;5.808;2023-07-29T05:30:22;22.90;57.80
62583;DHT22;48641;51.676;5.808;2023-07-29T05:32:48;22.90;57.70
62583;DHT22;48641;51.676;5.808;2023-07-29T05:35:14;22.90;57.70
62583;DHT22;48641;51.676;5.808;2023-07-29T05:37:40;22.90;57.70
62583;DHT22;48641;51.676;5.808;2023-07-29T05:40:07;22.90;57.70
62583;DHT22;48641;51.676;5.808;2023-07-29T05:42:33;22.90;57.70
62583;DHT22;48641;51.676;5.808;2023-07-29T05:44:59;22.90;57.70
62583;DHT22;48641;51.676;5.808;2023-07-29T05:47:24;22.90;57.70
62583;DHT22;48641;51.676;5.808;2023-07-29T05:49:50;22.90;57.90
62583;DHT22;48641;51.676;5.808;2023-07-29T05:52:16;22.90;57.80
62583;DHT22;48641;51.676;5.808;2023-07-29T05:54:41;22.90;57.80
62583;DHT22;48641;51.676;5.808;2023-07-29T05:57:09;22.90;58.80
62583;DHT22;48641;51.676;5.808;2023-07-29T05:59:35;22.90;58.80
62583;DHT22;48641;51.676;5.808;2023-07-29T06:02:00;22.90;57.90
62583;DHT22;48641;51.676;5.808;2023-07-29T06:04:26;22.90;57.90
62583;DHT22;48641;51.676;5.808;2023-07-29T06:06:52;22.90;57.90
62583;DHT22;48641;51.676;5.808;2023-07-29T06:09:18;22.90;57.80
62583;DHT22;48641;51.676;5.808;2023-07-29T06:11:43;22.90;57.70
62583;DHT22;48641;51.676;5.808;2023-07-29T06:14:09;22.90;57.70
62583;DHT22;48641;51.676;5.808;2023-07-29T06:16:34;22.90;57.70
62583;DHT22;48641;51.676;5.808;2023-07-29T06:19:00;22.90;57.70
62583;DHT22;48641;51.676;5.808;2023-07-29T06:21:26;22.90;57.80
62583;DHT22;48641;51.676;5.808;2023-07-29T06:23:51;22.90;57.80
62583;DHT22;48641;51.676;5.808;2023-07-29T06:26:17;22.90;57.70
62583;DHT22;48641;51.676;5.808;2023-07-29T06:28:43;22.90;57.80
62583;DHT22;48641;51.676;5.808;2023-07-29T06:31:08;22.90;57.90
62583;DHT22;48641;51.676;5.808;2023-07-29T06:33:34;22.90;57.90
62583;DHT22;48641;51.676;5.808;2023-07-29T06:35:59;22.80;57.90
62583;DHT22;48641;51.676;5.808;2023-07-29T06:38:25;22.90;57.90
62583;DHT22;48641;51.676;5.808;2023-07-29T06:40:51;22.80;57.90
62583;DHT22;48641;51.676;5.808;2023-07-29T06:43:17;22.90;57.90
62583;DHT22;48641;51.676;5.808;2023-07-29T06:45:43;22.80;57.80
62583;DHT22;48641;51.676;5.808;2023-07-29T06:48:11;22.80;57.80
62583;DHT22;48641;51.676;5.808;2023-07-29T06:50:37;22.80;57.80
62583;DHT22;48641;51.676;5.808;2023-07-29T06:53:03;22.80;57.80
62583;DHT22;48641;51.676;5.808;2023-07-29T06:55:28;22.80;57.80
62583;DHT22;48641;51.676;5.808;2023-07-29T06:57:54;22.80;57.90
62583;DHT22;48641;51.676;5.808;2023-07-29T07:00:20;22.90;58.10
62583;DHT22;48641;51.676;5.808;2023-07-29T07:02:45;22.80;58.10
62583;DHT22;48641;51.676;5.808;2023-07-29T07:05:11;22.80;58.10
62583;DHT22;48641;51.676;5.808;2023-07-29T07:07:37;22.80;58.00
62583;DHT22;48641;51.676;5.808;2023-07-29T07:10:03;22.80;58.20
62583;DHT22;48641;51.676;5.808;2023-07-29T07:12:29;22.80;58.20
62583;DHT22;48641;51.676;5.808;2023-07-29T07:14:55;22.80;58.20
62583;DHT22;48641;51.676;5.808;2023-07-29T07:17:20;22.80;58.10
62583;DHT22;48641;51.676;5.808;2023-07-29T07:19:46;22.80;58.20
62583;DHT22;48641;51.676;5.808;2023-07-29T07:22:12;22.80;58.20
62583;DHT22;48641;51.676;5.808;2023-07-29T07:24:37;22.80;58.10
62583;DHT22;48641;51.676;5.808;2023-07-29T07:27:03;22.80;58.10
62583;DHT22;48641;51.676;5.808;2023-07-29T07:29:29;22.80;58.10
62583;DHT22;48641;51.676;5.808;2023-07-29T07:31:56;22.80;58.10
62583;DHT22;48641;51.676;5.808;2023-07-29T07:34:22;22.80;58.20
62583;DHT22;48641;51.676;5.808;2023-07-29T07:36:48;22.80;58.30
62583;DHT22;48641;51.676;5.808;2023-07-29T07:39:14;22.80;58.20
62583;DHT22;48641;51.676;5.808;2023-07-29T07:41:40;22.80;58.30
62583;DHT22;48641;51.676;5.808;2023-07-29T07:44:06;22.80;58.40
62583;DHT22;48641;51.676;5.808;2023-07-29T07:46:31;22.80;58.40
62583;DHT22;48641;51.676;5.808;2023-07-29T07:48:57;22.80;58.40
62583;DHT22;48641;51.676;5.808;2023-07-29T07:51:22;22.80;58.40
62583;DHT22;48641;51.676;5.808;2023-07-29T07:53:48;22.90;58.50
62583;DHT22;48641;51.676;5.808;2023-07-29T07:56:14;22.90;58.50
62583;DHT22;48641;51.676;5.808;2023-07-29T07:58:40;22.80;58.40
62583;DHT22;48641;51.676;5.808;2023-07-29T08:01:07;22.90;58.60
62583;DHT22;48641;51.676;5.808;2023-07-29T08:03:34;22.90;58.60
62583;DHT22;48641;51.676;5.808;2023-07-29T08:06:00;22.90;58.70
62583;DHT22;48641;51.676;5.808;2023-07-29T08:08:26;22.80;58.40
62583;DHT22;48641;51.676;5.808;2023-07-29T08:10:56;22.80;58.40
62583;DHT22;48641;51.676;5.808;2023-07-29T08:13:23;22.80;58.30
62583;DHT22;48641;51.676;5.808;2023-07-29T08:15:50;22.80;58.20
62583;DHT22;48641;51.676;5.808;2023-07-29T08:18:16;22.80;58.20
62583;DHT22;48641;51.676;5.808;2023-07-29T08:20:53;22.80;58.40
62583;DHT22;48641;51.676;5.808;2023-07-29T08:23:20;22.80;58.40
62583;DHT22;48641;51.676;5.808;2023-07-29T08:25:53;22.80;59.40
62583;DHT22;48641;51.676;5.808;2023-07-29T08:28:19;22.90;58.60
62583;DHT22;48641;51.676;5.808;2023-07-29T08:30:45;22.90;58.70
62583;DHT22;48641;51.676;5.808;2023-07-29T08:33:11;22.80;58.70
62583;DHT22;48641;51.676;5.808;2023-07-29T08:35:36;22.90;58.80
62583;DHT22;48641;51.676;5.808;2023-07-29T08:38:02;22.90;58.70
62583;DHT22;48641;51.676;5.808;2023-07-29T08:40:30;22.90;59.70
62583;DHT22;48641;51.676;5.808;2023-07-29T08:42:58;22.90;58.70
62583;DHT22;48641;51.676;5.808;2023-07-29T08:45:27;22.90;58.80
62583;DHT22;48641;51.676;5.808;2023-07-29T08:47:55;22.90;58.80
62583;DHT22;48641;51.676;5.808;2023-07-29T08:50:24;22.90;58.80
62583;DHT22;48641;51.676;5.808;2023-07-29T08:52:51;22.90;58.80
62583;DHT22;48641;51.676;5.808;2023-07-29T08:55:18;22.80;58.70
62583;DHT22;48641;51.676;5.808;2023-07-29T08:57:44;22.90;58.70
62583;DHT22;48641;51.676;5.808;2023-07-29T09:00:10;22.80;58.60
62583;DHT22;48641;51.676;5.808;2023-07-29T09:02:36;22.80;58.40
62583;DHT22;48641;51.676;5.808;2023-07-29T09:05:02;22.90;59.00
62583;DHT22;48641;51.676;5.808;2023-07-29T09:07:28;22.90;59.10
62583;DHT22;48641;51.676;5.808;2023-07-29T09:09:54;22.90;59.00
62583;DHT22;48641;51.676;5.808;2023-07-29T09:12:20;22.90;59.00
62583;DHT22;48641;51.676;5.808;2023-07-29T09:14:46;22.90;59.00
62583;DHT22;48641;51.676;5.808;2023-07-29T09:17:12;22.90;58.90
62583;DHT22;48641;51.676;5.808;2023-07-29T09:19:39;22.90;58.80
62583;DHT22;48641;51.676;5.808;2023-07-29T09:22:05;22.90;59.00
62583;DHT22;48641;51.676;5.808;2023-07-29T09:24:30;22.90;58.90
62583;DHT22;48641;51.676;5.808;2023-07-29T09:26:57;22.90;59.00
62583;DHT22;48641;51.676;5.808;2023-07-29T09:29:23;22.90;59.00
62583;DHT22;48641;51.676;5.808;2023-07-29T09:31:51;22.90;60.00
62583;DHT22;48641;51.676;5.808;2023-07-29T09:34:17;22.90;59.10
62583;DHT22;48641;51.676;5.808;2023-07-29T09:36:43;22.90;59.20
62583;DHT22;48641;51.676;5.808;2023-07-29T09:39:12;22.90;59.10
62583;DHT22;48641;51.676;5.808;2023-07-29T09:41:41;22.90;59.10
62583;DHT22;48641;51.676;5.808;2023-07-29T09:44:12;22.90;59.10
62583;DHT22;48641;51.676;5.808;2023-07-29T09:46:38;22.90;59.00
62583;DHT22;48641;51.676;5.808;2023-07-29T09:49:07;22.90;59.00
62583;DHT22;48641;51.676;5.808;2023-07-29T09:51:39;22.90;59.00
62583;DHT22;48641;51.676;5.808;2023-07-29T09:54:05;23.00;59.00
62583;DHT22;48641;51.676;5.808;2023-07-29T09:56:31;22.90;58.90
62583;DHT22;48641;51.676;5.808;2023-07-29T09:58:57;22.90;58.80
62583;DHT22;48641;51.676;5.808;2023-07-29T10:01:23;23.00;58.90
62583;DHT22;48641;51.676;5.808;2023-07-29T10:03:49;23.00;59.00
62583;DHT22;48641;51.676;5.808;2023-07-29T10:06:15;22.90;58.90
62583;DHT22;48641;51.676;5.808;2023-07-29T10:08:42;23.00;59.00
62583;DHT22;48641;51.676;5.808;2023-07-29T10:11:09;23.00;58.90
62583;DHT22;48641;51.676;5.808;2023-07-29T10:13:36;22.90;58.90
62583;DHT22;48641;51.676;5.808;2023-07-29T10:16:02;22.90;58.80
62583;DHT22;48641;51.676;5.808;2023-07-29T10:18:29;22.90;58.70
62583;DHT22;48641;51.676;5.808;2023-07-29T10:20:58;23.00;59.00
62583;DHT22;48641;51.676;5.808;2023-07-29T10:23:25;23.00;58.90
62583;DHT22;48641;51.676;5.808;2023-07-29T10:26:10;23.00;58.90
62583;DHT22;48641;51.676;5.808;2023-07-29T10:28:39;23.00;58.80
62583;DHT22;48641;51.676;5.808;2023-07-29T10:31:05;22.90;58.80
62583;DHT22;48641;51.676;5.808;2023-07-29T10:33:33;23.00;58.90
62583;DHT22;48641;51.676;5.808;2023-07-29T10:35:59;23.00;58.90
62583;DHT22;48641;51.676;5.808;2023-07-29T10:38:25;23.00;58.80
62583;DHT22;48641;51.676;5.808;2023-07-29T10:40:53;23.00;58.90
62583;DHT22;48641;51.676;5.808;2023-07-29T10:43:39;23.00;59.00
62583;DHT22;48641;51.676;5.808;2023-07-29T10:46:19;23.10;59.00
62583;DHT22;48641;51.676;5.808;2023-07-29T10:48:56;23.00;58.90
62583;DHT22;48641;51.676;5.808;2023-07-29T10:51:30;23.00;58.90
62583;DHT22;48641;51.676;5.808;2023-07-29T10:53:59;23.00;58.90
62583;DHT22;48641;51.676;5.808;2023-07-29T10:56:33;23.00;59.00
62583;DHT22;48641;51.676;5.808;2023-07-29T11:01:39;23.00;59.10
62583;DHT22;48641;51.676;5.808;2023-07-29T11:15:28;23.20;60.80
62583;DHT22;48641;51.676;5.808;2023-07-29T11:17:58;23.30;61.80
62583;DHT22;48641;51.676;5.808;2023-07-29T11:20:26;23.30;61.50
62583;DHT22;48641;51.676;5.808;2023-07-29T11:22:54;23.40;61.60
62583;DHT22;48641;51.676;5.808;2023-07-29T11:25:21;23.50;61.70
62583;DHT22;48641;51.676;5.808;2023-07-29T11:27:47;23.50;61.10
62583;DHT22;48641;51.676;5.808;2023-07-29T11:30:15;23.50;60.70
62583;DHT22;48641;51.676;5.808;2023-07-29T11:32:42;23.50;60.70
62583;DHT22;48641;51.676;5.808;2023-07-29T11:35:13;23.50;60.70
62583;DHT22;48641;51.676;5.808;2023-07-29T11:37:41;23.50;60.40
62583;DHT22;48641;51.676;5.808;2023-07-29T11:40:07;23.50;60.20
62583;DHT22;48641;51.676;5.808;2023-07-29T11:42:36;23.50;60.20
62583;DHT22;48641;51.676;5.808;2023-07-29T11:45:03;23.50;60.10
62583;DHT22;48641;51.676;5.808;2023-07-29T11:47:32;23.50;59.90
62583;DHT22;48641;51.676;5.808;2023-07-29T11:50:01;23.50;59.80
62583;DHT22;48641;51.676;5.808;2023-07-29T11:52:27;23.50;59.80
62583;DHT22;48641;51.676;5.808;2023-07-29T11:54:53;23.50;59.80
62583;DHT22;48641;51.676;5.808;2023-07-29T11:57:20;23.40;59.60
62583;DHT22;48641;51.676;5.808;2023-07-29T11:59:46;23.40;59.50
62583;DHT22;48641;51.676;5.808;2023-07-29T12:02:16;23.50;59.60
62583;DHT22;48641;51.676;5.808;2023-07-29T12:04:44;23.40;59.50
62583;DHT22;48641;51.676;5.808;2023-07-29T12:07:13;23.40;59.50
62583;DHT22;48641;51.676;5.808;2023-07-29T12:09:41;23.40;59.60
62583;DHT22;48641;51.676;5.808;2023-07-29T12:12:07;23.40;59.50
62583;DHT22;48641;51.676;5.808;2023-07-29T12:14:34;23.40;59.40
62583;DHT22;48641;51.676;5.808;2023-07-29T12:17:01;23.40;59.40
62583;DHT22;48641;51.676;5.808;2023-07-29T12:19:34;23.40;59.40
62583;DHT22;48641;51.676;5.808;2023-07-29T12:22:01;23.50;59.50
62583;DHT22;48641;51.676;5.808;2023-07-29T12:24:27;23.40;59.40
62583;DHT22;48641;51.676;5.808;2023-07-29T12:26:54;23.40;59.30
62583;DHT22;48641;51.676;5.808;2023-07-29T12:29:20;23.50;59.40
62583;DHT22;48641;51.676;5.808;2023-07-29T12:31:46;23.40;59.40
62583;DHT22;48641;51.676;5.808;2023-07-29T12:34:21;23.40;59.30
62583;DHT22;48641;51.676;5.808;2023-07-29T12:36:51;23.40;59.20
62583;DHT22;48641;51.676;5.808;2023-07-29T12:39:40;23.40;59.30
62583;DHT22;48641;51.676;5.808;2023-07-29T12:42:07;23.40;59.30
62583;DHT22;48641;51.676;5.808;2023-07-29T12:44:35;23.40;59.60
62583;DHT22;48641;51.676;5.808;2023-07-29T12:47:02;23.40;59.60
62583;DHT22;48641;51.676;5.808;2023-07-29T12:49:28;23.40;59.80
62583;DHT22;48641;51.676;5.808;2023-07-29T12:51:58;23.40;60.00
62583;DHT22;48641;51.676;5.808;2023-07-29T12:54:23;23.40;60.00
62583;DHT22;48641;51.676;5.808;2023-07-29T12:56:49;23.40;59.80
62583;DHT22;48641;51.676;5.808;2023-07-29T12:59:15;23.30;60.10
62583;DHT22;48641;51.676;5.808;2023-07-29T13:01:40;23.40;60.20
62583;DHT22;48641;51.676;5.808;2023-07-29T13:04:06;23.40;60.10
62583;DHT22;48641;51.676;5.808;2023-07-29T13:27:29;23.10;60.70
62583;DHT22;48641;51.676;5.808;2023-07-29T13:29:55;23.20;60.90
62583;DHT22;48641;51.676;5.808;2023-07-29T13:32:21;23.20;60.80
62583;DHT22;48641;51.676;5.808;2023-07-29T13:34:46;23.30;61.40
62583;DHT22;48641;51.676;5.808;2023-07-29T13:37:12;23.30;61.80
62583;DHT22;48641;51.676;5.808;2023-07-29T13:39:37;23.30;61.50
62583;DHT22;48641;51.676;5.808;2023-07-29T13:42:03;23.40;61.60
62583;DHT22;48641;51.676;5.808;2023-07-29T13:44:29;23.40;61.50
62583;DHT22;48641;51.676;5.808;2023-07-29T13:46:54;23.40;61.30
62583;DHT22;48641;51.676;5.808;2023-07-29T13:49:20;23.40;61.30
62583;DHT22;48641;51.676;5.808;2023-07-29T13:51:45;23.40;61.30
62583;DHT22;48641;51.676;5.808;2023-07-29T13:54:11;23.40;61.30
62583;DHT22;48641;51.676;5.808;2023-07-29T13:56:37;23.50;61.40
62583;DHT22;48641;51.676;5.808;2023-07-29T13:59:02;23.40;61.30
62583;DHT22;48641;51.676;5.808;2023-07-29T14:01:28;23.50;61.20
62583;DHT22;48641;51.676;5.808;2023-07-29T14:03:53;23.50;61.10
62583;DHT22;48641;51.676;5.808;2023-07-29T14:06:19;23.50;61.00
62583;DHT22;48641;51.676;5.808;2023-07-29T14:08:45;23.50;60.90
62583;DHT22;48641;51.676;5.808;2023-07-29T14:11:10;23.50;61.00
62583;DHT22;48641;51.676;5.808;2023-07-29T14:13:36;23.50;60.90
62583;DHT22;48641;51.676;5.808;2023-07-29T14:16:02;23.50;60.80
62583;DHT22;48641;51.676;5.808;2023-07-29T14:18:28;23.50;60.80
62583;DHT22;48641;51.676;5.808;2023-07-29T14:20:53;23.50;60.70
62583;DHT22;48641;51.676;5.808;2023-07-29T14:23:19;23.60;60.70
62583;DHT22;48641;51.676;5.808;2023-07-29T14:25:45;23.60;60.70
62583;DHT22;48641;51.676;5.808;2023-07-29T14:28:10;23.60;60.70
62583;DHT22;48641;51.676;5.808;2023-07-29T14:30:36;23.60;60.60
62583;DHT22;48641;51.676;5.808;2023-07-29T14:33:03;23.60;60.50
62583;DHT22;48641;51.676;5.808;2023-07-29T14:35:28;23.60;60.50
62583;DHT22;48641;51.676;5.808;2023-07-29T14:37:54;23.60;60.60
62583;DHT22;48641;51.676;5.808;2023-07-29T14:40:20;23.60;60.60
62583;DHT22;48641;51.676;5.808;2023-07-29T14:42:45;23.60;60.50
62583;DHT22;48641;51.676;5.808;2023-07-29T14:45:11;23.60;60.50
62583;DHT22;48641;51.676;5.808;2023-07-29T14:47:36;23.60;60.50
62583;DHT22;48641;51.676;5.808;2023-07-29T14:50:02;23.60;60.50
62583;DHT22;48641;51.676;5.808;2023-07-29T14:52:28;23.60;60.50
62583;DHT22;48641;51.676;5.808;2023-07-29T14:54:53;23.60;60.40
62583;DHT22;48641;51.676;5.808;2023-07-29T14:57:19;23.60;60.30
62583;DHT22;48641;51.676;5.808;2023-07-29T14:59:45;23.60;60.20
62583;DHT22;48641;51.676;5.808;2023-07-29T15:02:10;23.60;60.20
62583;DHT22;48641;51.676;5.808;2023-07-29T15:04:36;23.60;60.10
62583;DHT22;48641;51.676;5.808;2023-07-29T15:07:02;23.60;60.20
62583;DHT22;48641;51.676;5.808;2023-07-29T15:09:28;23.60;60.00
62583;DHT22;48641;51.676;5.808;2023-07-29T15:11:53;23.60;60.10
62583;DHT22;48641;51.676;5.808;2023-07-29T15:14:19;23.60;60.20
62583;DHT22;48641;51.676;5.808;2023-07-29T15:16:44;23.60;60.20
62583;DHT22;48641;51.676;5.808;2023-07-29T15:19:10;23.60;60.20
62583;DHT22;48641;51.676;5.808;2023-07-29T15:21:36;23.60;60.10
62583;DHT22;48641;51.676;5.808;2023-07-29T15:24:01;23.60;60.10
62583;DHT22;48641;51.676;5.808;2023-07-29T15:26:27;23.60;60.10
62583;DHT22;48641;51.676;5.808;2023-07-29T15:28:53;23.60;60.10
62583;DHT22;48641;51.676;5.808;2023-07-29T15:31:19;23.60;60.00
62583;DHT22;48641;51.676;5.808;2023-07-29T15:33:44;23.60;60.00
62583;DHT22;48641;51.676;5.808;2023-07-29T15:36:10;23.60;60.00
62583;DHT22;48641;51.676;5.808;2023-07-29T15:38:35;23.60;60.00
62583;DHT22;48641;51.676;5.808;2023-07-29T15:41:02;23.60;59.90
62583;DHT22;48641;51.676;5.808;2023-07-29T15:43:27;23.60;59.90
62583;DHT22;48641;51.676;5.808;2023-07-29T15:45:53;23.70;59.90
62583;DHT22;48641;51.676;5.808;2023-07-29T15:48:19;23.60;59.70
62583;DHT22;48641;51.676;5.808;2023-07-29T15:50:45;23.60;59.80
62583;DHT22;48641;51.676;5.808;2023-07-29T15:53:10;23.60;59.70
62583;DHT22;48641;51.676;5.808;2023-07-29T15:55:36;23.60;59.60
62583;DHT22;48641;51.676;5.808;2023-07-29T15:58:02;23.60;59.70
62583;DHT22;48641;51.676;5.808;2023-07-29T16:00:27;23.70;59.60
62583;DHT22;48641;51.676;5.808;2023-07-29T16:02:54;23.70;59.60
62583;DHT22;48641;51.676;5.808;2023-07-29T16:05:20;23.60;59.50
62583;DHT22;48641;51.676;5.808;2023-07-29T16:07:45;23.70;59.60